Time;durP1;ratioP1;P1;durP2;ratioP2;P2;SDS_P1;SDS_P2;PMS_P1;PMS_P2;Temp;Humidity;BMP_temperature;BMP_pressure;BME280_temperature;BME280_humidity;BME280_pressure;Samples;Min_cycle;Max_cycle;Signal;HPM_P1;HPM_P2
2023/05/29 00:00:48;;;;;;;;;;;15.30;99.90;;;;;;7342289;19;110103;-62
2023/05/29 00:03:17;;;;;;;;;;;15.30;99.90;;;;;;7332861;19;112843;-62
2023/05/29 00:05:44;;;;;;;;;;;15.30;99.90;;;;;;7335262;19;109311;-63
2023/05/29 00:08:11;;;;;;;;;;;15.20;99.90;;;;;;7335112;19;111049;-62
2023/05/29 00:10:39;;;;;;;;;;;15.10;99.90;;;;;;7337588;19;109773;-62
2023/05/29 00:13:06;;;;;;;;;;;15.00;99.90;;;;;;7335541;19;109663;-63
2023/05/29 00:15:34;;;;;;;;;;;15.00;99.90;;;;;;7333305;19;110825;-63
2023/05/29 00:18:01;;;;;;;;;;;14.90;99.90;;;;;;7334026;19;111369;-65
2023/05/29 00:20:28;;;;;;;;;;;14.90;99.90;;;;;;7334693;19;109954;-63
2023/05/29 00:22:55;;;;;;;;;;;14.90;99.90;;;;;;7341004;19;110095;-63
2023/05/29 00:25:22;;;;;;;;;;;14.80;99.90;;;;;;7334114;19;109990;-63
2023/05/29 00:27:49;;;;;;;;;;;14.80;99.90;;;;;;7334598;19;111594;-62
2023/05/29 00:30:17;;;;;;;;;;;14.90;99.90;;;;;;7329310;19;110230;-63
2023/05/29 00:32:45;;;;;;;;;;;14.80;99.90;;;;;;7333298;19;110971;-62
2023/05/29 00:35:12;;;;;;;;;;;14.80;99.90;;;;;;7333588;19;110433;-63
2023/05/29 00:37:40;;;;;;;;;;;14.60;99.90;;;;;;7336354;19;109755;-62
2023/05/29 00:40:07;;;;;;;;;;;14.60;99.90;;;;;;7334376;19;109795;-62
2023/05/29 00:42:34;;;;;;;;;;;14.60;99.90;;;;;;7331153;19;111578;-62
2023/05/29 00:45:02;;;;;;;;;;;14.50;99.90;;;;;;7340371;19;109603;-63
2023/05/29 00:47:29;;;;;;;;;;;14.50;99.90;;;;;;7332900;19;110078;-62
2023/05/29 00:49:57;;;;;;;;;;;14.50;99.90;;;;;;7335816;19;110289;-63
2023/05/29 00:52:25;;;;;;;;;;;14.50;99.90;;;;;;7335121;19;109869;-62
2023/05/29 00:54:53;;;;;;;;;;;14.40;99.90;;;;;;7334108;19;111378;-63
2023/05/29 00:57:20;;;;;;;;;;;14.40;99.90;;;;;;7335328;19;110136;-63
2023/05/29 00:59:47;;;;;;;;;;;14.40;99.90;;;;;;7333873;19;110132;-62
2023/05/29 01:02:14;;;;;;;;;;;14.30;99.90;;;;;;7335614;19;110401;-62
2023/05/29 01:04:42;;;;;;;;;;;14.20;99.90;;;;;;7330684;19;112586;-63
2023/05/29 01:07:09;;;;;;;;;;;14.10;99.90;;;;;;7340011;19;110789;-63
2023/05/29 01:09:36;;;;;;;;;;;14.00;99.90;;;;;;7333220;19;109964;-63
2023/05/29 01:12:12;;;;;;;;;;;14.00;99.90;;;;;;7332147;19;109381;-63
2023/05/29 01:14:42;;;;;;;;;;;14.00;99.90;;;;;;7330910;19;111416;-62
2023/05/29 01:17:09;;;;;;;;;;;14.00;99.90;;;;;;7334565;19;109595;-62
2023/05/29 01:19:36;;;;;;;;;;;13.90;99.90;;;;;;7332425;19;113076;-63
2023/05/29 01:22:14;;;;;;;;;;;13.90;99.90;;;;;;7332839;19;110074;-63
2023/05/29 01:24:55;;;;;;;;;;;13.80;99.90;;;;;;7333411;19;109845;-65
2023/05/29 01:27:25;;;;;;;;;;;13.70;99.90;;;;;;7339277;19;109627;-62
2023/05/29 01:29:54;;;;;;;;;;;13.60;99.90;;;;;;7332649;19;111075;-62
2023/05/29 01:32:22;;;;;;;;;;;13.60;99.90;;;;;;7334099;19;110291;-62
2023/05/29 01:34:49;;;;;;;;;;;13.60;99.90;;;;;;7334986;19;114007;-63
2023/05/29 01:37:16;;;;;;;;;;;13.60;99.90;;;;;;7333498;19;110063;-63
2023/05/29 01:39:47;;;;;;;;;;;13.60;99.90;;;;;;7332367;19;119553;-63
2023/05/29 01:42:14;;;;;;;;;;;13.50;99.90;;;;;;7334424;19;111185;-63
2023/05/29 01:44:41;;;;;;;;;;;13.50;99.90;;;;;;7333019;19;109560;-68
2023/05/29 01:47:08;;;;;;;;;;;13.40;99.90;;;;;;7329756;19;111109;-66
2023/05/29 01:49:37;;;;;;;;;;;13.40;99.90;;;;;;7336821;19;111223;-63
2023/05/29 01:52:04;;;;;;;;;;;13.40;99.90;;;;;;7331676;19;109364;-66
2023/05/29 01:54:31;;;;;;;;;;;13.30;99.90;;;;;;7333053;19;111176;-63
2023/05/29 01:56:59;;;;;;;;;;;13.30;99.90;;;;;;7331839;19;111676;-63
2023/05/29 01:59:27;;;;;;;;;;;13.20;99.90;;;;;;7335558;19;109460;-63
2023/05/29 02:01:54;;;;;;;;;;;13.20;99.90;;;;;;7330570;19;110801;-63
2023/05/29 02:04:24;;;;;;;;;;;13.20;99.90;;;;;;7334223;19;110150;-63
2023/05/29 02:06:52;;;;;;;;;;;13.00;99.90;;;;;;7333483;19;109608;-63
2023/05/29 02:09:20;;;;;;;;;;;12.90;99.90;;;;;;7325354;19;110156;-64
2023/05/29 02:11:47;;;;;;;;;;;12.90;99.90;;;;;;7338332;19;112221;-63
2023/05/29 02:14:14;;;;;;;;;;;12.90;99.90;;;;;;7332345;19;111326;-64
2023/05/29 02:16:43;;;;;;;;;;;12.80;99.90;;;;;;7328379;19;109854;-66
2023/05/29 02:19:11;;;;;;;;;;;12.80;99.90;;;;;;7336067;19;110408;-89
2023/05/29 02:21:38;;;;;;;;;;;12.70;99.90;;;;;;7340746;19;111309;-88
2023/05/29 02:24:05;;;;;;;;;;;12.80;99.90;;;;;;7332443;19;109626;-62
2023/05/29 02:26:32;;;;;;;;;;;12.80;99.90;;;;;;7332886;19;111278;-66
2023/05/29 02:28:59;;;;;;;;;;;12.80;99.90;;;;;;7329809;19;110204;-65
2023/05/29 02:31:26;;;;;;;;;;;12.80;99.90;;;;;;7333655;19;109746;-63
2023/05/29 02:33:53;;;;;;;;;;;12.70;99.90;;;;;;7334138;19;112461;-63
2023/05/29 02:36:20;;;;;;;;;;;12.70;99.90;;;;;;7327978;19;115606;-63
2023/05/29 02:38:47;;;;;;;;;;;12.70;99.90;;;;;;7333716;19;109853;-63
2023/05/29 02:41:14;;;;;;;;;;;12.60;99.90;;;;;;7330609;19;111310;-63
2023/05/29 02:43:41;;;;;;;;;;;12.50;99.90;;;;;;7340692;19;110954;-64
2023/05/29 02:46:09;;;;;;;;;;;12.60;99.90;;;;;;7338259;19;109702;-63
2023/05/29 02:48:36;;;;;;;;;;;12.50;99.90;;;;;;7334147;19;110969;-63
2023/05/29 02:51:03;;;;;;;;;;;12.50;99.90;;;;;;7338781;19;109477;-64
2023/05/29 02:53:30;;;;;;;;;;;12.50;99.90;;;;;;7336677;19;110075;-63
2023/05/29 02:55:57;;;;;;;;;;;12.40;99.90;;;;;;7344968;19;110224;-63
2023/05/29 02:58:24;;;;;;;;;;;12.40;99.90;;;;;;7338121;19;109999;-63
2023/05/29 03:00:52;;;;;;;;;;;12.40;99.90;;;;;;7338656;19;110138;-63
2023/05/29 03:03:19;;;;;;;;;;;12.40;99.90;;;;;;7336025;19;110006;-64
2023/05/29 03:05:47;;;;;;;;;;;12.30;99.90;;;;;;7340447;19;110003;-64
2023/05/29 03:08:14;;;;;;;;;;;12.20;99.90;;;;;;7335719;19;111031;-63
2023/05/29 03:10:40;;;;;;;;;;;12.30;99.90;;;;;;7339476;19;109848;-62
2023/05/29 03:13:07;;;;;;;;;;;12.20;99.90;;;;;;7334056;19;110356;-62
2023/05/29 03:15:34;;;;;;;;;;;12.20;99.90;;;;;;7340925;19;111101;-63
2023/05/29 03:18:01;;;;;;;;;;;12.10;99.90;;;;;;7341911;19;109976;-63
2023/05/29 03:20:29;;;;;;;;;;;12.10;99.90;;;;;;7335950;19;110872;-67
2023/05/29 03:22:56;;;;;;;;;;;12.10;99.90;;;;;;7339642;19;109744;-63
2023/05/29 03:25:23;;;;;;;;;;;12.10;99.90;;;;;;7334741;19;110571;-63
2023/05/29 03:27:50;;;;;;;;;;;12.10;99.90;;;;;;7337641;19;111119;-63
2023/05/29 03:30:18;;;;;;;;;;;12.00;99.90;;;;;;7335940;19;110687;-64
2023/05/29 03:32:45;;;;;;;;;;;12.00;99.90;;;;;;7336238;19;114013;-64
2023/05/29 03:35:12;;;;;;;;;;;12.00;99.90;;;;;;7335478;19;111229;-65
2023/05/29 03:37:39;;;;;;;;;;;11.90;99.90;;;;;;7341623;19;109929;-66
2023/05/29 03:40:07;;;;;;;;;;;11.90;99.90;;;;;;7335251;19;111593;-68
2023/05/29 03:42:34;;;;;;;;;;;11.90;99.90;;;;;;7337048;19;110480;-64
2023/05/29 03:45:01;;;;;;;;;;;11.90;99.90;;;;;;7338098;19;109582;-68
2023/05/29 03:47:29;;;;;;;;;;;11.70;99.90;;;;;;7335504;19;112459;-63
2023/05/29 03:49:56;;;;;;;;;;;11.70;99.90;;;;;;7335442;19;111288;-67
2023/05/29 03:52:23;;;;;;;;;;;11.80;99.90;;;;;;7334622;19;109825;-63
2023/05/29 03:54:50;;;;;;;;;;;11.80;99.90;;;;;;7336141;19;111544;-64
2023/05/29 03:57:17;;;;;;;;;;;11.80;99.90;;;;;;7335180;19;109610;-63
2023/05/29 03:59:44;;;;;;;;;;;11.80;99.90;;;;;;7339802;19;109794;-64
2023/05/29 04:02:11;;;;;;;;;;;11.70;99.90;;;;;;7334556;19;109779;-63
2023/05/29 04:04:40;;;;;;;;;;;11.80;99.90;;;;;;7336725;19;109815;-63
2023/05/29 04:07:07;;;;;;;;;;;11.80;99.90;;;;;;7334344;19;110247;-64
2023/05/29 04:09:35;;;;;;;;;;;11.80;99.90;;;;;;7334177;19;111926;-63
2023/05/29 04:12:02;;;;;;;;;;;11.80;99.90;;;;;;7338683;19;110632;-63
2023/05/29 04:14:29;;;;;;;;;;;11.70;99.90;;;;;;7333201;19;110444;-64
2023/05/29 04:16:56;;;;;;;;;;;11.70;99.90;;;;;;7336837;19;111574;-64
2023/05/29 04:19:24;;;;;;;;;;;11.70;99.90;;;;;;7336682;19;109971;-63
2023/05/29 04:21:51;;;;;;;;;;;11.70;99.90;;;;;;7340883;19;110110;-63
2023/05/29 04:24:18;;;;;;;;;;;11.70;99.90;;;;;;7334575;19;110663;-64
2023/05/29 04:26:45;;;;;;;;;;;11.70;99.90;;;;;;7336069;19;111744;-63
2023/05/29 04:29:13;;;;;;;;;;;11.70;99.90;;;;;;7336289;19;110319;-63
2023/05/29 04:31:40;;;;;;;;;;;11.70;99.90;;;;;;7335056;19;112920;-64
2023/05/29 04:34:07;;;;;;;;;;;11.80;99.90;;;;;;7333175;19;110825;-63
2023/05/29 04:36:38;;;;;;;;;;;11.70;99.90;;;;;;7329582;19;109925;-63
2023/05/29 04:39:07;;;;;;;;;;;11.70;99.90;;;;;;7334888;19;109916;-62
2023/05/29 04:41:35;;;;;;;;;;;11.70;99.90;;;;;;7331995;19;110745;-63
2023/05/29 04:44:03;;;;;;;;;;;11.70;99.90;;;;;;7338494;19;111875;-64
2023/05/29 04:46:30;;;;;;;;;;;11.80;99.90;;;;;;7334728;19;110104;-63
2023/05/29 04:48:58;;;;;;;;;;;11.80;99.90;;;;;;7334879;19;110619;-63
2023/05/29 04:51:25;;;;;;;;;;;11.80;99.90;;;;;;7334635;19;109500;-63
2023/05/29 04:53:52;;;;;;;;;;;11.80;99.90;;;;;;7335165;19;113164;-64
2023/05/29 04:56:20;;;;;;;;;;;11.90;99.90;;;;;;7334293;19;110078;-64
2023/05/29 04:58:47;;;;;;;;;;;11.80;99.90;;;;;;7334782;19;110014;-66
2023/05/29 05:01:15;;;;;;;;;;;11.80;99.90;;;;;;7329385;19;110637;-69
2023/05/29 05:03:42;;;;;;;;;;;11.80;99.90;;;;;;7336129;19;110887;-64
2023/05/29 05:06:09;;;;;;;;;;;11.90;99.90;;;;;;7336393;19;111825;-64
2023/05/29 05:08:36;;;;;;;;;;;11.90;99.90;;;;;;7334947;19;110636;-63
2023/05/29 05:11:03;;;;;;;;;;;11.90;99.90;;;;;;7331169;19;109829;-63
2023/05/29 05:13:30;;;;;;;;;;;11.90;99.90;;;;;;7333116;19;112331;-63
2023/05/29 05:15:57;;;;;;;;;;;11.90;99.90;;;;;;7331235;19;109777;-63
2023/05/29 05:18:25;;;;;;;;;;;12.10;99.90;;;;;;7336104;19;109944;-63
2023/05/29 05:20:52;;;;;;;;;;;12.10;99.90;;;;;;7333267;19;110212;-63
2023/05/29 05:23:20;;;;;;;;;;;12.20;99.90;;;;;;7330162;19;110512;-63
2023/05/29 05:25:47;;;;;;;;;;;12.20;99.90;;;;;;7337307;19;109588;-63
2023/05/29 05:28:14;;;;;;;;;;;12.30;99.90;;;;;;7336461;19;110986;-67
2023/05/29 05:30:41;;;;;;;;;;;12.30;99.90;;;;;;7336107;19;110914;-63
2023/05/29 05:33:08;;;;;;;;;;;12.20;99.90;;;;;;7331200;19;110806;-63
2023/05/29 05:35:35;;;;;;;;;;;12.20;99.90;;;;;;7335218;19;109773;-63
2023/05/29 05:38:02;;;;;;;;;;;12.30;99.90;;;;;;7333318;19;109355;-63
2023/05/29 05:40:29;;;;;;;;;;;12.40;99.90;;;;;;7333546;19;110765;-63
2023/05/29 05:42:56;;;;;;;;;;;12.50;99.90;;;;;;7332462;19;110613;-63
2023/05/29 05:45:23;;;;;;;;;;;12.60;99.90;;;;;;7334323;19;109804;-63
2023/05/29 05:47:50;;;;;;;;;;;12.70;99.90;;;;;;7336175;19;113128;-62
2023/05/29 05:50:17;;;;;;;;;;;12.70;99.90;;;;;;7333040;19;112330;-64
2023/05/29 05:52:45;;;;;;;;;;;12.70;99.90;;;;;;7333087;19;110555;-63
2023/05/29 05:55:12;;;;;;;;;;;12.70;99.90;;;;;;7332851;19;110245;-65
2023/05/29 05:57:39;;;;;;;;;;;12.60;99.90;;;;;;7337911;19;110569;-66
2023/05/29 06:00:12;;;;;;;;;;;12.60;99.90;;;;;;7332692;19;111122;-69
2023/05/29 06:02:44;;;;;;;;;;;12.80;99.90;;;;;;7332263;19;112663;-64
2023/05/29 06:05:12;;;;;;;;;;;13.00;99.90;;;;;;7331538;19;110189;-63
2023/05/29 06:07:39;;;;;;;;;;;13.10;99.90;;;;;;7330223;19;110201;-64
2023/05/29 06:10:06;;;;;;;;;;;13.20;99.90;;;;;;7336201;19;110030;-63
2023/05/29 06:12:34;;;;;;;;;;;13.30;99.90;;;;;;7332714;19;110125;-64
2023/05/29 06:15:03;;;;;;;;;;;13.40;99.90;;;;;;7328927;19;109846;-63
2023/05/29 06:17:31;;;;;;;;;;;13.40;99.90;;;;;;7329155;19;110442;-63
2023/05/29 06:19:58;;;;;;;;;;;13.40;99.90;;;;;;7329173;19;110227;-63
2023/05/29 06:22:25;;;;;;;;;;;13.40;99.90;;;;;;7329457;19;109594;-63
2023/05/29 06:24:52;;;;;;;;;;;13.60;99.90;;;;;;7331290;19;109846;-63
2023/05/29 06:27:20;;;;;;;;;;;13.60;99.90;;;;;;7327405;19;115282;-63
2023/05/29 06:29:47;;;;;;;;;;;13.70;99.90;;;;;;7331841;19;110505;-64
2023/05/29 06:32:14;;;;;;;;;;;13.70;99.90;;;;;;7333644;19;110352;-63
2023/05/29 06:34:41;;;;;;;;;;;13.70;99.90;;;;;;7328925;19;110513;-63
2023/05/29 06:37:09;;;;;;;;;;;13.80;99.90;;;;;;7328142;19;110779;-64
2023/05/29 06:39:37;;;;;;;;;;;13.90;99.90;;;;;;7332186;19;110415;-64
2023/05/29 06:42:04;;;;;;;;;;;14.00;99.90;;;;;;7330453;19;109616;-63
2023/05/29 06:44:31;;;;;;;;;;;14.20;99.90;;;;;;7331187;19;110153;-64
2023/05/29 06:46:58;;;;;;;;;;;14.20;99.90;;;;;;7331030;19;114266;-63
2023/05/29 06:49:25;;;;;;;;;;;14.30;99.90;;;;;;7330780;19;109595;-64
2023/05/29 06:51:52;;;;;;;;;;;14.10;99.90;;;;;;7329562;19;109645;-63
2023/05/29 06:54:19;;;;;;;;;;;14.10;99.90;;;;;;7335603;19;110260;-64
2023/05/29 06:56:46;;;;;;;;;;;14.10;99.90;;;;;;7329981;19;110345;-63
2023/05/29 06:59:32;;;;;;;;;;;14.20;99.90;;;;;;7328489;19;110578;-66
2023/05/29 07:01:59;;;;;;;;;;;14.10;99.90;;;;;;7329549;19;110220;-64
2023/05/29 07:04:26;;;;;;;;;;;14.10;99.90;;;;;;7330391;19;110009;-63
2023/05/29 07:06:53;;;;;;;;;;;14.10;99.90;;;;;;7331654;19;110748;-69
2023/05/29 07:09:20;;;;;;;;;;;14.30;99.90;;;;;;7327209;19;110859;-66
2023/05/29 07:11:47;;;;;;;;;;;14.20;99.90;;;;;;7330499;19;110267;-69
2023/05/29 07:14:15;;;;;;;;;;;14.20;99.90;;;;;;7326944;19;111303;-69
2023/05/29 07:16:42;;;;;;;;;;;14.20;99.90;;;;;;7335854;19;110206;-71
2023/05/29 07:19:11;;;;;;;;;;;14.30;99.90;;;;;;7330289;19;110875;-64
2023/05/29 07:21:47;;;;;;;;;;;14.30;99.90;;;;;;7331260;19;109766;-65
2023/05/29 07:24:14;;;;;;;;;;;14.40;99.90;;;;;;7326560;19;110323;-65
2023/05/29 07:26:41;;;;;;;;;;;14.50;99.90;;;;;;7329575;19;112057;-64
2023/05/29 07:29:09;;;;;;;;;;;14.50;99.90;;;;;;7335162;19;110019;-64
2023/05/29 07:31:36;;;;;;;;;;;14.50;99.90;;;;;;7335548;19;109806;-64
2023/05/29 07:34:03;;;;;;;;;;;14.60;99.90;;;;;;7336780;19;110071;-64
2023/05/29 07:36:33;;;;;;;;;;;14.80;99.90;;;;;;7336147;19;111576;-65
2023/05/29 07:39:01;;;;;;;;;;;14.90;99.90;;;;;;7343372;19;112667;-64
2023/05/29 07:41:28;;;;;;;;;;;14.90;99.90;;;;;;7336875;19;110656;-64
2023/05/29 07:43:55;;;;;;;;;;;14.90;99.90;;;;;;7337998;19;109629;-63
2023/05/29 07:46:22;;;;;;;;;;;14.90;99.90;;;;;;7335917;19;111108;-64
2023/05/29 07:48:49;;;;;;;;;;;14.90;99.90;;;;;;7337933;19;109484;-63
2023/05/29 07:51:17;;;;;;;;;;;15.00;99.90;;;;;;7338654;19;110208;-64
2023/05/29 07:53:45;;;;;;;;;;;15.10;99.90;;;;;;7334904;19;110403;-63
2023/05/29 07:56:13;;;;;;;;;;;15.10;99.90;;;;;;7337493;19;109565;-64
2023/05/29 07:58:41;;;;;;;;;;;15.30;99.90;;;;;;7341202;19;109401;-64
2023/05/29 08:01:08;;;;;;;;;;;15.30;99.90;;;;;;7335549;19;110571;-64
2023/05/29 08:03:36;;;;;;;;;;;15.40;99.90;;;;;;7335867;19;110592;-64
2023/05/29 08:06:04;;;;;;;;;;;15.50;99.90;;;;;;7335224;19;110412;-64
2023/05/29 08:08:31;;;;;;;;;;;15.60;99.90;;;;;;7334307;19;110900;-64
2023/05/29 08:10:58;;;;;;;;;;;15.70;99.90;;;;;;7332805;19;110422;-64
2023/05/29 08:13:25;;;;;;;;;;;15.70;99.90;;;;;;7336103;19;117580;-63
2023/05/29 08:15:53;;;;;;;;;;;15.80;99.90;;;;;;7334659;19;109454;-64
2023/05/29 08:18:25;;;;;;;;;;;15.70;99.90;;;;;;7336456;19;109271;-64
2023/05/29 08:20:52;;;;;;;;;;;15.80;99.90;;;;;;7338710;19;111292;-65
2023/05/29 08:23:20;;;;;;;;;;;15.70;99.90;;;;;;7332716;19;112769;-64
2023/05/29 08:25:47;;;;;;;;;;;15.80;99.90;;;;;;7335402;19;111081;-64
2023/05/29 08:28:15;;;;;;;;;;;15.60;99.90;;;;;;7330921;19;109751;-63
2023/05/29 08:30:42;;;;;;;;;;;15.70;99.90;;;;;;7335174;19;109556;-65
2023/05/29 08:33:09;;;;;;;;;;;15.70;99.90;;;;;;7333891;19;110890;-64
2023/05/29 08:35:36;;;;;;;;;;;15.80;99.90;;;;;;7338478;19;110317;-68
2023/05/29 08:38:03;;;;;;;;;;;15.90;99.90;;;;;;7335897;19;109733;-65
2023/05/29 08:40:30;;;;;;;;;;;16.00;99.90;;;;;;7329709;19;111225;-65
2023/05/29 08:43:02;;;;;;;;;;;16.10;99.90;;;;;;7340024;19;110283;-68
2023/05/29 08:45:30;;;;;;;;;;;16.20;99.90;;;;;;7332972;19;111432;-64
2023/05/29 08:47:59;;;;;;;;;;;16.40;99.90;;;;;;7333558;19;111478;-68
2023/05/29 08:50:26;;;;;;;;;;;16.20;99.90;;;;;;7332367;19;110402;-64
2023/05/29 08:52:53;;;;;;;;;;;16.20;99.90;;;;;;7336286;19;110264;-65
2023/05/29 08:55:20;;;;;;;;;;;16.20;99.90;;;;;;7330266;19;110194;-64
2023/05/29 08:57:48;;;;;;;;;;;16.20;99.90;;;;;;7335463;19;109909;-66
2023/05/29 09:00:20;;;;;;;;;;;16.40;99.90;;;;;;7331691;19;110509;-64
2023/05/29 09:02:47;;;;;;;;;;;16.50;99.90;;;;;;7330845;19;110058;-66
2023/05/29 09:05:14;;;;;;;;;;;16.40;99.90;;;;;;7338800;19;110893;-64
2023/05/29 09:07:41;;;;;;;;;;;16.40;99.90;;;;;;7330346;19;111400;-65
2023/05/29 09:10:09;;;;;;;;;;;16.50;99.90;;;;;;7333679;19;110314;-64
2023/05/29 09:12:36;;;;;;;;;;;16.60;99.90;;;;;;7328247;19;110622;-65
2023/05/29 09:15:07;;;;;;;;;;;16.60;99.90;;;;;;7335414;19;112032;-64
2023/05/29 09:17:35;;;;;;;;;;;16.70;99.90;;;;;;7334438;19;109387;-64
2023/05/29 09:20:03;;;;;;;;;;;16.90;99.90;;;;;;7333844;19;110151;-64
2023/05/29 09:22:31;;;;;;;;;;;17.00;99.90;;;;;;7333597;19;110719;-64
2023/05/29 09:24:59;;;;;;;;;;;17.10;99.90;;;;;;7333943;19;110562;-64
2023/05/29 09:27:26;;;;;;;;;;;17.20;99.90;;;;;;7337794;19;112552;-64
2023/05/29 09:29:53;;;;;;;;;;;17.30;99.90;;;;;;7331627;19;110424;-64
2023/05/29 09:32:20;;;;;;;;;;;17.50;99.90;;;;;;7334211;19;110457;-63
2023/05/29 09:34:47;;;;;;;;;;;17.50;99.90;;;;;;7332418;19;109368;-64
2023/05/29 09:37:17;;;;;;;;;;;17.50;99.90;;;;;;7328230;19;111573;-64
2023/05/29 09:39:45;;;;;;;;;;;17.50;99.90;;;;;;7331129;19;110737;-64
2023/05/29 09:42:12;;;;;;;;;;;17.60;99.90;;;;;;7334245;19;109699;-64
2023/05/29 09:44:40;;;;;;;;;;;17.50;99.90;;;;;;7330173;19;110061;-64
2023/05/29 09:47:07;;;;;;;;;;;17.50;99.90;;;;;;7332798;19;110175;-64
2023/05/29 09:49:36;;;;;;;;;;;17.80;99.90;;;;;;7336370;19;110809;-64
2023/05/29 09:52:03;;;;;;;;;;;18.00;99.90;;;;;;7330285;19;110121;-64
2023/05/29 09:54:31;;;;;;;;;;;17.90;99.30;;;;;;7334626;19;114398;-64
2023/05/29 09:56:58;;;;;;;;;;;17.80;99.70;;;;;;7331975;19;109759;-63
2023/05/29 09:59:25;;;;;;;;;;;17.80;98.90;;;;;;7328766;19;111458;-63
2023/05/29 10:02:03;;;;;;;;;;;17.80;99.10;;;;;;7332006;19;110772;-63
2023/05/29 10:04:34;;;;;;;;;;;17.90;99.70;;;;;;7333085;19;109880;-63
2023/05/29 10:07:08;;;;;;;;;;;18.00;98.90;;;;;;7330499;19;110389;-63
2023/05/29 10:09:38;;;;;;;;;;;18.00;98.80;;;;;;7338422;19;109571;-63
2023/05/29 10:12:07;;;;;;;;;;;18.10;98.90;;;;;;7332397;19;111337;-63
2023/05/29 10:14:35;;;;;;;;;;;18.20;98.70;;;;;;7332293;19;110884;-63
2023/05/29 10:17:06;;;;;;;;;;;18.30;98.60;;;;;;7332493;19;109946;-63
2023/05/29 10:19:35;;;;;;;;;;;18.40;99.30;;;;;;7333060;19;110954;-63
2023/05/29 10:22:03;;;;;;;;;;;18.50;98.20;;;;;;7331586;19;109696;-64
2023/05/29 10:24:32;;;;;;;;;;;18.50;98.70;;;;;;7335184;19;109599;-63
2023/05/29 10:26:59;;;;;;;;;;;18.60;98.50;;;;;;7329352;19;111242;-63
2023/05/29 10:29:34;;;;;;;;;;;18.60;98.60;;;;;;7331934;19;109399;-63
2023/05/29 10:32:16;;;;;;;;;;;18.70;97.70;;;;;;7336908;19;110749;-63
2023/05/29 10:35:02;;;;;;;;;;;18.70;98.00;;;;;;7329986;19;110061;-63
2023/05/29 10:37:35;;;;;;;;;;;18.60;98.30;;;;;;7333065;19;109269;-63
2023/05/29 10:40:08;;;;;;;;;;;18.70;98.70;;;;;;7333325;19;111455;-63
2023/05/29 10:42:45;;;;;;;;;;;18.70;97.90;;;;;;7328288;19;109885;-63
2023/05/29 10:45:29;;;;;;;;;;;18.70;98.40;;;;;;7330096;19;110625;-64
2023/05/29 10:47:56;;;;;;;;;;;19.00;98.50;;;;;;7333370;19;110858;-63
2023/05/29 10:50:42;;;;;;;;;;;19.00;97.50;;;;;;7330930;19;111224;-63
2023/05/29 10:53:10;;;;;;;;;;;19.10;98.10;;;;;;7330722;19;110121;-63
2023/05/29 10:55:38;;;;;;;;;;;19.30;98.20;;;;;;7332890;19;111575;-63
2023/05/29 10:58:06;;;;;;;;;;;19.50;97.40;;;;;;7329779;19;109746;-63
2023/05/29 11:00:33;;;;;;;;;;;19.50;96.40;;;;;;7332872;19;112019;-63
2023/05/29 11:03:10;;;;;;;;;;;19.40;96.20;;;;;;7333548;19;110969;-85
2023/05/29 11:05:56;;;;;;;;;;;19.40;97.30;;;;;;7321726;19;111058;-88
2023/05/29 11:08:34;;;;;;;;;;;19.50;96.80;;;;;;7328879;19;114038;-87
2023/05/29 11:11:02;;;;;;;;;;;19.70;96.60;;;;;;7330597;19;110114;-84
2023/05/29 11:13:36;;;;;;;;;;;19.70;96.50;;;;;;7333560;19;110250;-84
2023/05/29 11:16:09;;;;;;;;;;;19.70;96.30;;;;;;7329637;19;111250;-85
2023/05/29 11:18:44;;;;;;;;;;;19.80;97.20;;;;;;7336568;19;110085;-85
2023/05/29 11:21:34;;;;;;;;;;;20.00;97.30;;;;;;7330064;19;111213;-64
2023/05/29 11:24:02;;;;;;;;;;;19.90;95.70;;;;;;7328476;19;109902;-65
2023/05/29 11:26:34;;;;;;;;;;;19.90;96.10;;;;;;7325283;19;111219;-64
2023/05/29 11:29:02;;;;;;;;;;;20.00;96.00;;;;;;7330975;19;110903;-66
2023/05/29 11:31:31;;;;;;;;;;;20.00;96.40;;;;;;7327418;19;110096;-64
2023/05/29 11:34:01;;;;;;;;;;;20.20;95.80;;;;;;7329567;19;109461;-63
2023/05/29 11:36:28;;;;;;;;;;;20.20;95.40;;;;;;7330765;19;111415;-64
2023/05/29 11:38:56;;;;;;;;;;;20.10;95.10;;;;;;7330175;19;113780;-64
2023/05/29 11:41:23;;;;;;;;;;;20.10;95.40;;;;;;7335758;19;109438;-63
2023/05/29 11:44:05;;;;;;;;;;;20.10;95.10;;;;;;7327294;19;112908;-91
2023/05/29 11:46:34;;;;;;;;;;;20.10;95.20;;;;;;7332813;19;109974;-85
2023/05/29 11:49:01;;;;;;;;;;;20.10;95.40;;;;;;7331756;19;112062;-85
2023/05/29 11:51:28;;;;;;;;;;;20.10;95.30;;;;;;7333710;19;110890;-86
2023/05/29 11:53:58;;;;;;;;;;;20.20;95.40;;;;;;7333024;19;110661;-86
2023/05/29 11:56:26;;;;;;;;;;;20.40;95.50;;;;;;7328536;19;114120;-86
2023/05/29 11:58:59;;;;;;;;;;;20.70;95.40;;;;;;7332905;19;109337;-87
2023/05/29 12:01:28;;;;;;;;;;;20.80;95.80;;;;;;7336207;19;113158;-86
2023/05/29 12:03:55;;;;;;;;;;;21.00;95.30;;;;;;7328720;19;109827;-86
2023/05/29 12:06:32;;;;;;;;;;;21.00;94.30;;;;;;7330108;19;109865;-86
2023/05/29 12:09:00;;;;;;;;;;;20.90;94.70;;;;;;7328799;19;110133;-86
2023/05/29 12:11:27;;;;;;;;;;;20.80;95.40;;;;;;7330217;19;109959;-64
2023/05/29 12:13:55;;;;;;;;;;;21.00;95.00;;;;;;7327730;19;111075;-64
2023/05/29 12:16:25;;;;;;;;;;;21.00;94.80;;;;;;7327087;19;110092;-63
2023/05/29 12:18:53;;;;;;;;;;;21.00;95.40;;;;;;7327730;19;109591;-64
2023/05/29 12:21:21;;;;;;;;;;;21.30;94.70;;;;;;7323556;19;111898;-64
2023/05/29 12:23:48;;;;;;;;;;;21.40;94.30;;;;;;7329324;19;111220;-64
2023/05/29 12:26:23;;;;;;;;;;;21.30;94.10;;;;;;7326464;19;110970;-64
2023/05/29 12:28:52;;;;;;;;;;;21.40;94.60;;;;;;7324533;19;110068;-64
2023/05/29 12:31:28;;;;;;;;;;;21.30;94.70;;;;;;7325970;19;110464;-64
2023/05/29 12:34:22;;;;;;;;;;;21.30;94.20;;;;;;7326964;19;110018;-65
2023/05/29 12:36:49;;;;;;;;;;;21.30;94.90;;;;;;7323241;19;110363;-67
2023/05/29 12:39:16;;;;;;;;;;;21.40;93.40;;;;;;7324269;19;109675;-63
2023/05/29 12:41:44;;;;;;;;;;;21.40;93.90;;;;;;7328060;19;110314;-66
2023/05/29 12:44:12;;;;;;;;;;;21.40;93.50;;;;;;7325056;19;113900;-64
2023/05/29 12:46:39;;;;;;;;;;;21.70;94.30;;;;;;7331915;19;109647;-64
2023/05/29 12:49:13;;;;;;;;;;;21.90;93.60;;;;;;7327079;19;110666;-64
2023/05/29 12:51:41;;;;;;;;;;;22.20;93.20;;;;;;7324455;19;110168;-64
2023/05/29 12:54:12;;;;;;;;;;;22.20;92.30;;;;;;7327426;19;109642;-64
2023/05/29 12:56:40;;;;;;;;;;;22.10;93.10;;;;;;7326430;19;111607;-64
2023/05/29 12:59:10;;;;;;;;;;;22.20;93.10;;;;;;7325586;19;110307;-64
2023/05/29 13:01:40;;;;;;;;;;;22.40;92.10;;;;;;7328231;19;110161;-64
2023/05/29 13:04:07;;;;;;;;;;;21.90;92.10;;;;;;7325325;19;110431;-64
2023/05/29 13:06:38;;;;;;;;;;;21.80;93.00;;;;;;7326669;19;109896;-64
2023/05/29 13:09:07;;;;;;;;;;;22.00;93.20;;;;;;7332710;19;110190;-64
2023/05/29 13:11:35;;;;;;;;;;;22.10;93.30;;;;;;7325636;19;110759;-64
2023/05/29 13:14:04;;;;;;;;;;;22.30;93.10;;;;;;7324665;19;110690;-63
2023/05/29 13:16:31;;;;;;;;;;;22.70;93.00;;;;;;7325543;19;110591;-64
2023/05/29 13:18:58;;;;;;;;;;;22.70;90.80;;;;;;7327230;19;110828;-64
2023/05/29 13:21:25;;;;;;;;;;;22.70;91.70;;;;;;7326868;19;112770;-64
2023/05/29 13:23:53;;;;;;;;;;;22.80;91.80;;;;;;7326985;19;110444;-64
2023/05/29 13:26:21;;;;;;;;;;;22.90;91.30;;;;;;7324866;19;114667;-64
2023/05/29 13:28:48;;;;;;;;;;;22.60;90.40;;;;;;7327690;19;110563;-64
2023/05/29 13:31:15;;;;;;;;;;;22.40;91.30;;;;;;7329875;19;110985;-64
2023/05/29 13:33:43;;;;;;;;;;;22.50;91.80;;;;;;7325172;19;109977;-64
2023/05/29 13:36:10;;;;;;;;;;;22.80;91.70;;;;;;7324896;19;110410;-64
2023/05/29 13:38:37;;;;;;;;;;;22.80;90.10;;;;;;7327985;19;109664;-64
2023/05/29 13:41:04;;;;;;;;;;;22.70;90.10;;;;;;7326189;19;109867;-64
2023/05/29 13:43:31;;;;;;;;;;;22.30;90.00;;;;;;7324291;19;111162;-64
2023/05/29 13:46:10;;;;;;;;;;;22.10;90.50;;;;;;7326254;19;110643;-64
2023/05/29 13:48:37;;;;;;;;;;;22.10;91.20;;;;;;7325810;19;110844;-64
2023/05/29 13:51:05;;;;;;;;;;;22.30;91.10;;;;;;7325094;19;110384;-64
2023/05/29 13:53:33;;;;;;;;;;;22.60;90.80;;;;;;7331183;19;110420;-64
2023/05/29 13:56:00;;;;;;;;;;;22.70;90.20;;;;;;7324999;19;113573;-65
2023/05/29 13:58:27;;;;;;;;;;;22.70;89.70;;;;;;7326380;19;110942;-64
2023/05/29 14:00:55;;;;;;;;;;;22.50;90.30;;;;;;7323554;19;111267;-64
2023/05/29 14:03:25;;;;;;;;;;;22.70;90.70;;;;;;7323781;19;112047;-64
2023/05/29 14:05:52;;;;;;;;;;;22.80;90.30;;;;;;7319903;19;110030;-64
2023/05/29 14:08:20;;;;;;;;;;;22.60;90.50;;;;;;7324105;19;109862;-63
2023/05/29 14:10:47;;;;;;;;;;;22.70;91.10;;;;;;7323822;19;110451;-63